sensor_id;sensor_type;location;lat;lon;timestamp;P1;durP1;ratioP1;P2;durP2;ratioP2
11328;SDS011;5719;42.714;23.732;2023-10-08T00:01:07;12.63;;;4.05;;
11328;SDS011;5719;42.714;23.732;2023-10-08T00:03:37;7.05;;;3.92;;
11328;SDS011;5719;42.714;23.732;2023-10-08T00:06:04;7.78;;;3.80;;
11328;SDS011;5719;42.714;23.732;2023-10-08T00:08:37;8.60;;;4.15;;
11328;SDS011;5719;42.714;23.732;2023-10-08T00:11:04;4.82;;;3.28;;
11328;SDS011;5719;42.714;23.732;2023-10-08T00:13:34;10.27;;;4.20;;
11328;SDS011;5719;42.714;23.732;2023-10-08T00:16:05;7.80;;;4.50;;
11328;SDS011;5719;42.714;23.732;2023-10-08T00:18:34;5.97;;;3.58;;
11328;SDS011;5719;42.714;23.732;2023-10-08T00:21:02;7.32;;;4.10;;
11328;SDS011;5719;42.714;23.732;2023-10-08T00:23:41;10.63;;;4.25;;
11328;SDS011;5719;42.714;23.732;2023-10-08T00:26:14;8.70;;;4.27;;
11328;SDS011;5719;42.714;23.732;2023-10-08T00:28:45;10.52;;;4.15;;
11328;SDS011;5719;42.714;23.732;2023-10-08T00:31:13;5.25;;;3.85;;
11328;SDS011;5719;42.714;23.732;2023-10-08T00:33:42;11.48;;;3.90;;
11328;SDS011;5719;42.714;23.732;2023-10-08T00:36:10;9.57;;;4.40;;
11328;SDS011;5719;42.714;23.732;2023-10-08T00:38:44;6.00;;;4.15;;
11328;SDS011;5719;42.714;23.732;2023-10-08T00:41:14;4.95;;;3.63;;
11328;SDS011;5719;42.714;23.732;2023-10-08T00:43:41;8.05;;;3.60;;
11328;SDS011;5719;42.714;23.732;2023-10-08T00:46:11;5.95;;;3.53;;
11328;SDS011;5719;42.714;23.732;2023-10-08T00:48:47;5.53;;;3.40;;
11328;SDS011;5719;42.714;23.732;2023-10-08T00:51:14;7.55;;;3.65;;
11328;SDS011;5719;42.714;23.732;2023-10-08T00:53:52;5.25;;;3.78;;
11328;SDS011;5719;42.714;23.732;2023-10-08T00:56:25;6.95;;;3.72;;
11328;SDS011;5719;42.714;23.732;2023-10-08T00:59:11;6.50;;;3.78;;
11328;SDS011;5719;42.714;23.732;2023-10-08T01:01:42;6.32;;;4.00;;
11328;SDS011;5719;42.714;23.732;2023-10-08T01:04:16;6.53;;;3.60;;
11328;SDS011;5719;42.714;23.732;2023-10-08T01:06:47;7.47;;;4.22;;
11328;SDS011;5719;42.714;23.732;2023-10-08T01:09:19;7.75;;;4.13;;
11328;SDS011;5719;42.714;23.732;2023-10-08T01:12:06;11.73;;;4.15;;
11328;SDS011;5719;42.714;23.732;2023-10-08T01:14:34;6.88;;;3.55;;
11328;SDS011;5719;42.714;23.732;2023-10-08T01:17:03;7.22;;;3.90;;
11328;SDS011;5719;42.714;23.732;2023-10-08T01:19:32;6.38;;;3.83;;
11328;SDS011;5719;42.714;23.732;2023-10-08T01:22:05;7.95;;;3.95;;
11328;SDS011;5719;42.714;23.732;2023-10-08T01:24:33;7.05;;;4.15;;
11328;SDS011;5719;42.714;23.732;2023-10-08T01:27:01;6.78;;;3.97;;
11328;SDS011;5719;42.714;23.732;2023-10-08T01:29:30;7.45;;;3.80;;
11328;SDS011;5719;42.714;23.732;2023-10-08T01:31:57;7.60;;;4.25;;
11328;SDS011;5719;42.714;23.732;2023-10-08T01:34:24;7.13;;;3.97;;
11328;SDS011;5719;42.714;23.732;2023-10-08T01:36:56;13.10;;;4.38;;
11328;SDS011;5719;42.714;23.732;2023-10-08T01:39:29;8.23;;;3.70;;
11328;SDS011;5719;42.714;23.732;2023-10-08T01:41:57;5.80;;;3.70;;
11328;SDS011;5719;42.714;23.732;2023-10-08T01:44:24;7.32;;;4.13;;
11328;SDS011;5719;42.714;23.732;2023-10-08T01:46:51;6.03;;;3.58;;
11328;SDS011;5719;42.714;23.732;2023-10-08T01:49:18;7.40;;;4.35;;
11328;SDS011;5719;42.714;23.732;2023-10-08T01:51:48;7.97;;;4.20;;
11328;SDS011;5719;42.714;23.732;2023-10-08T01:54:16;6.60;;;3.80;;
11328;SDS011;5719;42.714;23.732;2023-10-08T01:56:47;5.90;;;3.83;;
11328;SDS011;5719;42.714;23.732;2023-10-08T01:59:15;13.30;;;4.60;;
11328;SDS011;5719;42.714;23.732;2023-10-08T02:01:42;10.55;;;4.25;;
11328;SDS011;5719;42.714;23.732;2023-10-08T02:04:10;7.93;;;4.00;;
11328;SDS011;5719;42.714;23.732;2023-10-08T02:06:37;6.63;;;3.55;;
11328;SDS011;5719;42.714;23.732;2023-10-08T02:09:05;5.85;;;4.20;;
11328;SDS011;5719;42.714;23.732;2023-10-08T02:11:41;6.25;;;3.90;;
11328;SDS011;5719;42.714;23.732;2023-10-08T02:14:12;4.97;;;3.58;;
11328;SDS011;5719;42.714;23.732;2023-10-08T02:16:42;7.22;;;3.75;;
11328;SDS011;5719;42.714;23.732;2023-10-08T02:19:09;9.35;;;4.15;;
11328;SDS011;5719;42.714;23.732;2023-10-08T02:21:36;6.78;;;3.78;;
11328;SDS011;5719;42.714;23.732;2023-10-08T02:24:05;6.78;;;3.70;;
11328;SDS011;5719;42.714;23.732;2023-10-08T02:26:33;5.25;;;3.42;;
11328;SDS011;5719;42.714;23.732;2023-10-08T02:29:00;9.68;;;3.83;;
11328;SDS011;5719;42.714;23.732;2023-10-08T02:31:32;7.28;;;3.67;;
11328;SDS011;5719;42.714;23.732;2023-10-08T02:33:59;6.38;;;3.92;;
11328;SDS011;5719;42.714;23.732;2023-10-08T02:36:26;6.68;;;3.90;;
11328;SDS011;5719;42.714;23.732;2023-10-08T02:38:53;8.95;;;3.88;;
11328;SDS011;5719;42.714;23.732;2023-10-08T02:41:20;6.22;;;3.65;;
11328;SDS011;5719;42.714;23.732;2023-10-08T02:43:49;6.85;;;3.90;;
11328;SDS011;5719;42.714;23.732;2023-10-08T02:46:16;6.82;;;4.03;;
11328;SDS011;5719;42.714;23.732;2023-10-08T02:48:45;6.55;;;3.92;;
11328;SDS011;5719;42.714;23.732;2023-10-08T02:51:12;5.72;;;3.60;;
11328;SDS011;5719;42.714;23.732;2023-10-08T02:53:40;7.40;;;4.13;;
11328;SDS011;5719;42.714;23.732;2023-10-08T02:56:09;10.98;;;4.40;;
11328;SDS011;5719;42.714;23.732;2023-10-08T02:58:39;6.72;;;4.18;;
11328;SDS011;5719;42.714;23.732;2023-10-08T03:01:06;9.35;;;4.13;;
11328;SDS011;5719;42.714;23.732;2023-10-08T03:03:37;12.07;;;4.07;;
11328;SDS011;5719;42.714;23.732;2023-10-08T03:06:06;7.20;;;4.13;;
11328;SDS011;5719;42.714;23.732;2023-10-08T03:08:37;14.07;;;4.05;;
11328;SDS011;5719;42.714;23.732;2023-10-08T03:11:06;7.30;;;4.40;;
11328;SDS011;5719;42.714;23.732;2023-10-08T03:13:42;6.35;;;3.80;;
11328;SDS011;5719;42.714;23.732;2023-10-08T03:16:12;9.25;;;4.28;;
11328;SDS011;5719;42.714;23.732;2023-10-08T03:18:40;5.80;;;3.67;;
11328;SDS011;5719;42.714;23.732;2023-10-08T03:21:11;6.45;;;3.72;;
11328;SDS011;5719;42.714;23.732;2023-10-08T03:24:07;6.22;;;3.70;;
11328;SDS011;5719;42.714;23.732;2023-10-08T03:26:49;9.50;;;4.05;;
11328;SDS011;5719;42.714;23.732;2023-10-08T03:29:20;10.00;;;3.55;;
11328;SDS011;5719;42.714;23.732;2023-10-08T03:31:55;11.18;;;4.63;;
11328;SDS011;5719;42.714;23.732;2023-10-08T03:34:22;7.55;;;4.20;;
11328;SDS011;5719;42.714;23.732;2023-10-08T03:37:00;7.40;;;4.32;;
11328;SDS011;5719;42.714;23.732;2023-10-08T03:39:32;7.68;;;3.95;;
11328;SDS011;5719;42.714;23.732;2023-10-08T03:42:12;9.00;;;4.45;;
11328;SDS011;5719;42.714;23.732;2023-10-08T03:44:45;8.90;;;4.28;;
11328;SDS011;5719;42.714;23.732;2023-10-08T03:47:16;10.57;;;4.35;;
11328;SDS011;5719;42.714;23.732;2023-10-08T03:49:44;8.90;;;4.35;;
11328;SDS011;5719;42.714;23.732;2023-10-08T03:52:12;8.88;;;3.75;;
11328;SDS011;5719;42.714;23.732;2023-10-08T03:54:40;10.30;;;4.32;;
11328;SDS011;5719;42.714;23.732;2023-10-08T03:57:13;10.00;;;4.38;;
11328;SDS011;5719;42.714;23.732;2023-10-08T03:59:44;14.02;;;4.90;;
11328;SDS011;5719;42.714;23.732;2023-10-08T04:02:13;14.30;;;4.97;;
11328;SDS011;5719;42.714;23.732;2023-10-08T04:04:47;11.45;;;5.03;;
11328;SDS011;5719;42.714;23.732;2023-10-08T04:07:23;10.60;;;5.18;;
11328;SDS011;5719;42.714;23.732;2023-10-08T04:09:53;10.85;;;5.55;;
11328;SDS011;5719;42.714;23.732;2023-10-08T04:12:41;10.73;;;5.75;;
11328;SDS011;5719;42.714;23.732;2023-10-08T04:15:09;12.95;;;6.60;;
11328;SDS011;5719;42.714;23.732;2023-10-08T04:17:37;12.73;;;5.90;;
11328;SDS011;5719;42.714;23.732;2023-10-08T04:20:16;13.65;;;5.65;;
11328;SDS011;5719;42.714;23.732;2023-10-08T04:22:59;10.13;;;5.22;;
11328;SDS011;5719;42.714;23.732;2023-10-08T04:25:27;11.48;;;4.90;;
11328;SDS011;5719;42.714;23.732;2023-10-08T04:27:54;11.75;;;5.03;;
11328;SDS011;5719;42.714;23.732;2023-10-08T04:30:23;9.98;;;4.78;;
11328;SDS011;5719;42.714;23.732;2023-10-08T04:32:58;11.73;;;5.03;;
11328;SDS011;5719;42.714;23.732;2023-10-08T04:35:31;7.68;;;4.55;;
11328;SDS011;5719;42.714;23.732;2023-10-08T04:38:03;9.07;;;5.00;;
11328;SDS011;5719;42.714;23.732;2023-10-08T04:40:33;7.90;;;4.90;;
11328;SDS011;5719;42.714;23.732;2023-10-08T04:45:36;7.40;;;4.13;;
11328;SDS011;5719;42.714;23.732;2023-10-08T04:48:03;8.75;;;4.63;;
11328;SDS011;5719;42.714;23.732;2023-10-08T04:50:34;11.55;;;4.55;;
11328;SDS011;5719;42.714;23.732;2023-10-08T04:53:03;10.35;;;4.88;;
11328;SDS011;5719;42.714;23.732;2023-10-08T04:55:33;8.93;;;4.18;;
11328;SDS011;5719;42.714;23.732;2023-10-08T04:58:00;10.60;;;4.68;;
11328;SDS011;5719;42.714;23.732;2023-10-08T05:00:37;9.70;;;4.30;;
11328;SDS011;5719;42.714;23.732;2023-10-08T05:03:18;7.72;;;4.57;;
11328;SDS011;5719;42.714;23.732;2023-10-08T05:05:48;14.85;;;4.32;;
11328;SDS011;5719;42.714;23.732;2023-10-08T05:08:34;10.13;;;4.18;;
11328;SDS011;5719;42.714;23.732;2023-10-08T05:11:12;8.50;;;3.85;;
11328;SDS011;5719;42.714;23.732;2023-10-08T05:14:02;8.65;;;4.13;;
11328;SDS011;5719;42.714;23.732;2023-10-08T05:16:31;9.60;;;4.57;;
11328;SDS011;5719;42.714;23.732;2023-10-08T05:19:11;12.93;;;8.35;;
11328;SDS011;5719;42.714;23.732;2023-10-08T05:22:02;26.42;;;14.63;;
11328;SDS011;5719;42.714;23.732;2023-10-08T05:24:44;23.98;;;10.80;;
11328;SDS011;5719;42.714;23.732;2023-10-08T05:27:31;22.85;;;11.23;;
11328;SDS011;5719;42.714;23.732;2023-10-08T05:30:21;18.50;;;10.10;;
11328;SDS011;5719;42.714;23.732;2023-10-08T05:33:03;22.92;;;10.32;;
11328;SDS011;5719;42.714;23.732;2023-10-08T05:35:49;18.13;;;8.85;;
11328;SDS011;5719;42.714;23.732;2023-10-08T05:38:20;14.63;;;6.78;;
11328;SDS011;5719;42.714;23.732;2023-10-08T05:43:42;7.60;;;5.20;;
11328;SDS011;5719;42.714;23.732;2023-10-08T05:46:26;10.70;;;5.30;;
11328;SDS011;5719;42.714;23.732;2023-10-08T05:49:10;8.80;;;4.85;;
11328;SDS011;5719;42.714;23.732;2023-10-08T05:51:54;10.88;;;4.85;;
11328;SDS011;5719;42.714;23.732;2023-10-08T05:54:50;5.97;;;4.03;;
11328;SDS011;5719;42.714;23.732;2023-10-08T05:57:35;8.18;;;4.43;;
11328;SDS011;5719;42.714;23.732;2023-10-08T06:00:06;11.63;;;5.25;;
11328;SDS011;5719;42.714;23.732;2023-10-08T06:02:55;12.20;;;5.10;;
11328;SDS011;5719;42.714;23.732;2023-10-08T06:05:34;10.80;;;5.20;;
11328;SDS011;5719;42.714;23.732;2023-10-08T06:08:08;9.50;;;5.13;;
11328;SDS011;5719;42.714;23.732;2023-10-08T06:10:39;11.10;;;5.07;;
11328;SDS011;5719;42.714;23.732;2023-10-08T06:13:23;11.05;;;5.22;;
11328;SDS011;5719;42.714;23.732;2023-10-08T06:16:10;12.50;;;4.88;;
11328;SDS011;5719;42.714;23.732;2023-10-08T06:18:38;13.02;;;5.32;;
11328;SDS011;5719;42.714;23.732;2023-10-08T06:21:06;15.40;;;4.93;;
11328;SDS011;5719;42.714;23.732;2023-10-08T06:23:33;14.98;;;5.43;;
11328;SDS011;5719;42.714;23.732;2023-10-08T06:26:01;11.00;;;5.20;;
11328;SDS011;5719;42.714;23.732;2023-10-08T06:28:41;6.90;;;4.55;;
11328;SDS011;5719;42.714;23.732;2023-10-08T06:31:10;8.77;;;4.70;;
11328;SDS011;5719;42.714;23.732;2023-10-08T06:33:41;10.57;;;4.80;;
11328;SDS011;5719;42.714;23.732;2023-10-08T06:36:09;9.93;;;4.65;;
11328;SDS011;5719;42.714;23.732;2023-10-08T06:38:41;11.02;;;4.60;;
11328;SDS011;5719;42.714;23.732;2023-10-08T06:41:09;10.35;;;4.75;;
11328;SDS011;5719;42.714;23.732;2023-10-08T06:43:41;13.30;;;4.72;;
11328;SDS011;5719;42.714;23.732;2023-10-08T06:46:10;11.70;;;4.65;;
11328;SDS011;5719;42.714;23.732;2023-10-08T06:48:37;9.55;;;4.45;;
11328;SDS011;5719;42.714;23.732;2023-10-08T06:51:07;8.35;;;4.32;;
11328;SDS011;5719;42.714;23.732;2023-10-08T06:53:38;14.02;;;4.80;;
11328;SDS011;5719;42.714;23.732;2023-10-08T06:56:05;9.05;;;4.00;;
11328;SDS011;5719;42.714;23.732;2023-10-08T06:58:34;8.65;;;4.28;;
11328;SDS011;5719;42.714;23.732;2023-10-08T07:01:02;13.48;;;5.07;;
11328;SDS011;5719;42.714;23.732;2023-10-08T07:03:33;12.60;;;4.68;;
11328;SDS011;5719;42.714;23.732;2023-10-08T07:06:03;9.45;;;4.60;;
11328;SDS011;5719;42.714;23.732;2023-10-08T07:08:42;9.82;;;4.28;;
11328;SDS011;5719;42.714;23.732;2023-10-08T07:11:11;9.40;;;4.30;;
11328;SDS011;5719;42.714;23.732;2023-10-08T07:13:39;8.50;;;4.22;;
11328;SDS011;5719;42.714;23.732;2023-10-08T07:16:09;8.90;;;4.20;;
11328;SDS011;5719;42.714;23.732;2023-10-08T07:18:37;9.98;;;4.38;;
11328;SDS011;5719;42.714;23.732;2023-10-08T07:21:07;12.15;;;4.55;;
11328;SDS011;5719;42.714;23.732;2023-10-08T07:23:38;12.35;;;4.50;;
11328;SDS011;5719;42.714;23.732;2023-10-08T07:26:21;11.03;;;4.30;;
11328;SDS011;5719;42.714;23.732;2023-10-08T07:28:50;13.13;;;4.30;;
11328;SDS011;5719;42.714;23.732;2023-10-08T07:31:20;9.10;;;4.75;;
11328;SDS011;5719;42.714;23.732;2023-10-08T07:33:48;15.63;;;4.47;;
11328;SDS011;5719;42.714;23.732;2023-10-08T07:36:21;8.00;;;4.18;;
11328;SDS011;5719;42.714;23.732;2023-10-08T07:38:49;13.43;;;4.35;;
11328;SDS011;5719;42.714;23.732;2023-10-08T07:41:19;10.55;;;4.07;;
11328;SDS011;5719;42.714;23.732;2023-10-08T07:43:46;10.60;;;4.47;;
11328;SDS011;5719;42.714;23.732;2023-10-08T07:46:22;12.02;;;4.18;;
11328;SDS011;5719;42.714;23.732;2023-10-08T07:48:51;11.43;;;4.32;;
11328;SDS011;5719;42.714;23.732;2023-10-08T07:51:18;9.75;;;3.90;;
11328;SDS011;5719;42.714;23.732;2023-10-08T07:53:47;9.38;;;4.45;;
11328;SDS011;5719;42.714;23.732;2023-10-08T07:56:14;7.13;;;4.22;;
11328;SDS011;5719;42.714;23.732;2023-10-08T07:58:43;9.07;;;3.90;;
11328;SDS011;5719;42.714;23.732;2023-10-08T08:01:09;9.68;;;3.80;;
11328;SDS011;5719;42.714;23.732;2023-10-08T08:03:40;8.48;;;4.30;;
11328;SDS011;5719;42.714;23.732;2023-10-08T08:06:08;10.10;;;4.32;;
11328;SDS011;5719;42.714;23.732;2023-10-08T08:08:37;10.18;;;4.22;;
11328;SDS011;5719;42.714;23.732;2023-10-08T08:11:05;12.05;;;4.13;;
11328;SDS011;5719;42.714;23.732;2023-10-08T08:13:37;11.30;;;4.38;;
11328;SDS011;5719;42.714;23.732;2023-10-08T08:16:07;7.93;;;3.47;;
11328;SDS011;5719;42.714;23.732;2023-10-08T08:18:44;10.68;;;4.13;;
11328;SDS011;5719;42.714;23.732;2023-10-08T08:21:11;8.27;;;4.18;;
11328;SDS011;5719;42.714;23.732;2023-10-08T08:23:41;6.80;;;3.78;;
11328;SDS011;5719;42.714;23.732;2023-10-08T08:26:13;7.72;;;3.72;;
11328;SDS011;5719;42.714;23.732;2023-10-08T08:28:52;9.23;;;3.78;;
11328;SDS011;5719;42.714;23.732;2023-10-08T08:31:20;12.02;;;4.32;;
11328;SDS011;5719;42.714;23.732;2023-10-08T08:33:49;9.15;;;3.72;;
11328;SDS011;5719;42.714;23.732;2023-10-08T08:36:22;6.97;;;3.92;;
11328;SDS011;5719;42.714;23.732;2023-10-08T08:38:50;15.32;;;3.92;;
11328;SDS011;5719;42.714;23.732;2023-10-08T08:41:17;14.38;;;4.10;;
11328;SDS011;5719;42.714;23.732;2023-10-08T08:43:47;5.97;;;3.95;;
11328;SDS011;5719;42.714;23.732;2023-10-08T08:46:22;6.90;;;3.50;;
11328;SDS011;5719;42.714;23.732;2023-10-08T08:48:55;7.88;;;3.70;;
11328;SDS011;5719;42.714;23.732;2023-10-08T08:51:24;11.02;;;4.30;;
11328;SDS011;5719;42.714;23.732;2023-10-08T08:53:51;9.75;;;3.90;;
11328;SDS011;5719;42.714;23.732;2023-10-08T08:56:18;8.98;;;3.88;;
11328;SDS011;5719;42.714;23.732;2023-10-08T08:58:48;8.73;;;3.90;;
11328;SDS011;5719;42.714;23.732;2023-10-08T09:01:16;8.52;;;3.80;;
11328;SDS011;5719;42.714;23.732;2023-10-08T09:03:43;11.55;;;3.75;;
11328;SDS011;5719;42.714;23.732;2023-10-08T09:06:14;7.28;;;3.75;;
11328;SDS011;5719;42.714;23.732;2023-10-08T09:08:41;15.70;;;4.50;;
11328;SDS011;5719;42.714;23.732;2023-10-08T09:11:13;12.65;;;5.32;;
11328;SDS011;5719;42.714;23.732;2023-10-08T09:13:41;10.60;;;5.35;;
11328;SDS011;5719;42.714;23.732;2023-10-08T09:16:12;9.55;;;4.00;;
11328;SDS011;5719;42.714;23.732;2023-10-08T09:18:41;10.35;;;4.07;;
11328;SDS011;5719;42.714;23.732;2023-10-08T09:21:11;12.40;;;4.47;;
11328;SDS011;5719;42.714;23.732;2023-10-08T09:23:43;16.25;;;4.45;;
11328;SDS011;5719;42.714;23.732;2023-10-08T09:26:12;10.73;;;4.20;;
11328;SDS011;5719;42.714;23.732;2023-10-08T09:28:40;10.70;;;3.90;;
11328;SDS011;5719;42.714;23.732;2023-10-08T09:31:11;12.18;;;3.97;;
11328;SDS011;5719;42.714;23.732;2023-10-08T09:33:39;8.50;;;4.10;;
11328;SDS011;5719;42.714;23.732;2023-10-08T09:36:07;13.68;;;4.35;;
11328;SDS011;5719;42.714;23.732;2023-10-08T09:38:35;9.48;;;3.60;;
11328;SDS011;5719;42.714;23.732;2023-10-08T09:41:05;9.10;;;4.05;;
11328;SDS011;5719;42.714;23.732;2023-10-08T09:43:33;8.85;;;3.78;;
11328;SDS011;5719;42.714;23.732;2023-10-08T09:46:03;8.88;;;3.72;;
11328;SDS011;5719;42.714;23.732;2023-10-08T09:51:03;9.43;;;4.20;;
11328;SDS011;5719;42.714;23.732;2023-10-08T09:53:33;9.77;;;4.22;;
11328;SDS011;5719;42.714;23.732;2023-10-08T09:56:11;6.82;;;3.70;;
11328;SDS011;5719;42.714;23.732;2023-10-08T09:58:40;10.35;;;4.00;;
11328;SDS011;5719;42.714;23.732;2023-10-08T10:01:09;12.60;;;4.03;;
11328;SDS011;5719;42.714;23.732;2023-10-08T10:03:36;6.00;;;3.55;;
11328;SDS011;5719;42.714;23.732;2023-10-08T10:06:04;11.27;;;3.75;;
11328;SDS011;5719;42.714;23.732;2023-10-08T10:08:40;11.02;;;4.00;;
11328;SDS011;5719;42.714;23.732;2023-10-08T10:11:10;13.65;;;4.22;;
11328;SDS011;5719;42.714;23.732;2023-10-08T10:13:41;10.52;;;4.30;;
11328;SDS011;5719;42.714;23.732;2023-10-08T10:16:09;10.85;;;4.05;;
11328;SDS011;5719;42.714;23.732;2023-10-08T10:18:39;9.50;;;3.70;;
11328;SDS011;5719;42.714;23.732;2023-10-08T10:21:24;12.98;;;3.85;;
11328;SDS011;5719;42.714;23.732;2023-10-08T10:23:53;8.43;;;3.65;;
11328;SDS011;5719;42.714;23.732;2023-10-08T10:26:24;12.07;;;3.67;;
11328;SDS011;5719;42.714;23.732;2023-10-08T10:31:46;7.95;;;3.35;;
11328;SDS011;5719;42.714;23.732;2023-10-08T10:34:16;8.77;;;3.78;;
11328;SDS011;5719;42.714;23.732;2023-10-08T10:36:44;8.73;;;3.42;;
11328;SDS011;5719;42.714;23.732;2023-10-08T10:39:13;6.80;;;3.80;;
11328;SDS011;5719;42.714;23.732;2023-10-08T10:41:44;12.30;;;3.90;;
11328;SDS011;5719;42.714;23.732;2023-10-08T10:44:12;10.43;;;3.80;;
11328;SDS011;5719;42.714;23.732;2023-10-08T10:46:40;8.18;;;3.25;;
11328;SDS011;5719;42.714;23.732;2023-10-08T10:49:08;6.25;;;3.10;;
11328;SDS011;5719;42.714;23.732;2023-10-08T10:51:44;12.00;;;3.03;;
11328;SDS011;5719;42.714;23.732;2023-10-08T10:54:11;7.65;;;3.50;;
11328;SDS011;5719;42.714;23.732;2023-10-08T10:56:46;7.82;;;3.47;;
11328;SDS011;5719;42.714;23.732;2023-10-08T10:59:28;9.10;;;3.10;;
11328;SDS011;5719;42.714;23.732;2023-10-08T11:02:01;6.43;;;3.10;;
11328;SDS011;5719;42.714;23.732;2023-10-08T11:04:33;9.63;;;3.10;;
11328;SDS011;5719;42.714;23.732;2023-10-08T11:07:13;8.38;;;3.50;;
11328;SDS011;5719;42.714;23.732;2023-10-08T11:09:41;5.35;;;3.08;;
11328;SDS011;5719;42.714;23.732;2023-10-08T11:12:12;6.78;;;3.08;;
11328;SDS011;5719;42.714;23.732;2023-10-08T11:14:48;8.85;;;3.33;;
11328;SDS011;5719;42.714;23.732;2023-10-08T11:17:17;7.28;;;3.10;;
11328;SDS011;5719;42.714;23.732;2023-10-08T11:19:49;5.07;;;2.83;;
11328;SDS011;5719;42.714;23.732;2023-10-08T11:22:16;12.55;;;2.83;;
11328;SDS011;5719;42.714;23.732;2023-10-08T11:24:48;6.85;;;3.30;;
11328;SDS011;5719;42.714;23.732;2023-10-08T11:27:20;5.55;;;2.88;;
11328;SDS011;5719;42.714;23.732;2023-10-08T11:29:55;6.20;;;2.90;;
11328;SDS011;5719;42.714;23.732;2023-10-08T11:32:23;19.77;;;3.42;;
11328;SDS011;5719;42.714;23.732;2023-10-08T11:34:54;8.38;;;3.53;;
11328;SDS011;5719;42.714;23.732;2023-10-08T11:37:27;7.40;;;3.22;;
11328;SDS011;5719;42.714;23.732;2023-10-08T11:39:54;10.48;;;3.17;;
11328;SDS011;5719;42.714;23.732;2023-10-08T11:42:25;9.60;;;3.13;;
11328;SDS011;5719;42.714;23.732;2023-10-08T11:45:07;10.95;;;3.40;;
11328;SDS011;5719;42.714;23.732;2023-10-08T11:47:48;10.93;;;3.25;;
11328;SDS011;5719;42.714;23.732;2023-10-08T11:50:22;7.20;;;3.42;;
11328;SDS011;5719;42.714;23.732;2023-10-08T11:52:56;7.25;;;2.90;;
11328;SDS011;5719;42.714;23.732;2023-10-08T11:55:27;7.97;;;3.38;;
11328;SDS011;5719;42.714;23.732;2023-10-08T11:57:55;9.75;;;3.42;;
11328;SDS011;5719;42.714;23.732;2023-10-08T12:00:22;9.75;;;2.97;;
11328;SDS011;5719;42.714;23.732;2023-10-08T12:02:51;9.32;;;3.20;;
11328;SDS011;5719;42.714;23.732;2023-10-08T12:05:19;12.50;;;3.25;;
11328;SDS011;5719;42.714;23.732;2023-10-08T12:07:49;8.23;;;3.35;;
11328;SDS011;5719;42.714;23.732;2023-10-08T12:10:17;6.43;;;3.20;;
11328;SDS011;5719;42.714;23.732;2023-10-08T12:12:48;9.40;;;3.00;;
11328;SDS011;5719;42.714;23.732;2023-10-08T12:15:19;9.15;;;3.45;;
11328;SDS011;5719;42.714;23.732;2023-10-08T12:17:46;9.02;;;3.15;;
11328;SDS011;5719;42.714;23.732;2023-10-08T12:20:36;11.88;;;3.25;;
11328;SDS011;5719;42.714;23.732;2023-10-08T12:23:04;8.57;;;3.25;;
11328;SDS011;5719;42.714;23.732;2023-10-08T12:25:31;14.18;;;3.33;;
11328;SDS011;5719;42.714;23.732;2023-10-08T12:27:59;6.80;;;2.80;;
11328;SDS011;5719;42.714;23.732;2023-10-08T12:30:31;7.75;;;3.22;;
11328;SDS011;5719;42.714;23.732;2023-10-08T12:33:06;16.80;;;3.72;;
11328;SDS011;5719;42.714;23.732;2023-10-08T12:35:37;12.43;;;3.63;;
11328;SDS011;5719;42.714;23.732;2023-10-08T12:38:05;14.02;;;3.33;;
11328;SDS011;5719;42.714;23.732;2023-10-08T12:40:34;17.52;;;3.55;;
11328;SDS011;5719;42.714;23.732;2023-10-08T12:43:12;14.02;;;3.00;;
11328;SDS011;5719;42.714;23.732;2023-10-08T12:45:45;12.05;;;3.67;;
11328;SDS011;5719;42.714;23.732;2023-10-08T12:48:18;11.52;;;3.17;;
11328;SDS011;5719;42.714;23.732;2023-10-08T12:50:46;16.92;;;3.97;;
11328;SDS011;5719;42.714;23.732;2023-10-08T12:53:19;11.70;;;3.55;;
11328;SDS011;5719;42.714;23.732;2023-10-08T12:55:49;13.05;;;3.08;;
11328;SDS011;5719;42.714;23.732;2023-10-08T12:58:19;18.15;;;3.88;;
11328;SDS011;5719;42.714;23.732;2023-10-08T13:00:52;13.55;;;2.97;;
11328;SDS011;5719;42.714;23.732;2023-10-08T13:03:26;24.10;;;3.73;;
11328;SDS011;5719;42.714;23.732;2023-10-08T13:05:56;11.00;;;3.40;;
11328;SDS011;5719;42.714;23.732;2023-10-08T13:08:29;16.67;;;3.58;;
11328;SDS011;5719;42.714;23.732;2023-10-08T13:10:56;12.73;;;3.13;;
11328;SDS011;5719;42.714;23.732;2023-10-08T13:13:26;18.08;;;3.90;;
11328;SDS011;5719;42.714;23.732;2023-10-08T13:15:54;17.05;;;3.70;;
11328;SDS011;5719;42.714;23.732;2023-10-08T13:18:25;13.57;;;3.78;;
11328;SDS011;5719;42.714;23.732;2023-10-08T13:20:52;18.85;;;3.17;;
11328;SDS011;5719;42.714;23.732;2023-10-08T13:23:19;12.90;;;3.70;;
11328;SDS011;5719;42.714;23.732;2023-10-08T13:25:48;13.05;;;3.30;;
11328;SDS011;5719;42.714;23.732;2023-10-08T13:28:19;13.18;;;3.38;;
11328;SDS011;5719;42.714;23.732;2023-10-08T13:30:48;15.52;;;2.95;;
11328;SDS011;5719;42.714;23.732;2023-10-08T13:33:19;18.17;;;3.50;;
11328;SDS011;5719;42.714;23.732;2023-10-08T13:35:47;10.95;;;2.85;;
11328;SDS011;5719;42.714;23.732;2023-10-08T13:38:15;14.57;;;3.03;;
11328;SDS011;5719;42.714;23.732;2023-10-08T13:40:45;8.95;;;3.15;;
11328;SDS011;5719;42.714;23.732;2023-10-08T13:43:27;8.15;;;3.30;;
11328;SDS011;5719;42.714;23.732;2023-10-08T13:45:59;21.70;;;3.42;;
11328;SDS011;5719;42.714;23.732;2023-10-08T13:48:30;19.15;;;3.45;;
11328;SDS011;5719;42.714;23.732;2023-10-08T13:50:59;14.60;;;3.33;;
11328;SDS011;5719;42.714;23.732;2023-10-08T13:53:28;14.52;;;3.10;;
11328;SDS011;5719;42.714;23.732;2023-10-08T13:55:57;13.35;;;3.05;;
11328;SDS011;5719;42.714;23.732;2023-10-08T13:58:25;17.38;;;3.38;;
11328;SDS011;5719;42.714;23.732;2023-10-08T14:00:55;12.60;;;2.97;;
11328;SDS011;5719;42.714;23.732;2023-10-08T14:03:22;19.90;;;3.30;;
11328;SDS011;5719;42.714;23.732;2023-10-08T14:05:51;21.88;;;3.70;;
11328;SDS011;5719;42.714;23.732;2023-10-08T14:08:19;17.75;;;3.65;;
11328;SDS011;5719;42.714;23.732;2023-10-08T14:10:47;12.55;;;3.17;;
11328;SDS011;5719;42.714;23.732;2023-10-08T14:13:15;19.27;;;3.33;;
11328;SDS011;5719;42.714;23.732;2023-10-08T14:15:45;12.82;;;3.25;;
11328;SDS011;5719;42.714;23.732;2023-10-08T14:18:15;12.82;;;3.83;;
11328;SDS011;5719;42.714;23.732;2023-10-08T14:20:43;10.95;;;3.35;;
11328;SDS011;5719;42.714;23.732;2023-10-08T14:23:20;13.60;;;3.45;;
11328;SDS011;5719;42.714;23.732;2023-10-08T14:25:48;12.90;;;3.25;;
11328;SDS011;5719;42.714;23.732;2023-10-08T14:28:17;14.55;;;3.55;;
11328;SDS011;5719;42.714;23.732;2023-10-08T14:30:51;16.85;;;4.20;;
11328;SDS011;5719;42.714;23.732;2023-10-08T14:33:21;13.80;;;3.33;;
11328;SDS011;5719;42.714;23.732;2023-10-08T14:35:52;13.00;;;3.55;;
11328;SDS011;5719;42.714;23.732;2023-10-08T14:38:38;13.30;;;3.28;;
11328;SDS011;5719;42.714;23.732;2023-10-08T14:41:30;12.77;;;2.95;;
11328;SDS011;5719;42.714;23.732;2023-10-08T14:44:15;18.40;;;3.50;;
11328;SDS011;5719;42.714;23.732;2023-10-08T14:46:42;11.10;;;3.33;;
11328;SDS011;5719;42.714;23.732;2023-10-08T14:49:09;15.88;;;3.13;;
11328;SDS011;5719;42.714;23.732;2023-10-08T14:51:37;12.82;;;3.47;;
11328;SDS011;5719;42.714;23.732;2023-10-08T14:54:07;16.75;;;3.45;;
11328;SDS011;5719;42.714;23.732;2023-10-08T14:56:34;10.05;;;2.80;;
11328;SDS011;5719;42.714;23.732;2023-10-08T14:59:02;11.75;;;3.00;;
11328;SDS011;5719;42.714;23.732;2023-10-08T15:01:29;10.07;;;3.00;;
11328;SDS011;5719;42.714;23.732;2023-10-08T15:03:58;8.27;;;3.28;;
11328;SDS011;5719;42.714;23.732;2023-10-08T15:06:29;14.93;;;3.03;;
11328;SDS011;5719;42.714;23.732;2023-10-08T15:08:57;9.38;;;2.72;;
11328;SDS011;5719;42.714;23.732;2023-10-08T15:11:25;16.13;;;3.58;;
11328;SDS011;5719;42.714;23.732;2023-10-08T15:13:55;12.50;;;3.45;;
11328;SDS011;5719;42.714;23.732;2023-10-08T15:16:23;11.77;;;3.30;;